Saratoga, Minnesota
Current Conditions -  °F | °C
As of 7:54 AM on Monday 24 Nov 2014 (Local Time) from KONA Reporting Station
Light Snow Light Snow  
Wind Chill: 22°   Ceiling: 500
Heat Index: 32°   Visibility: 1.5mi
Dew Point: 30°   Wind: 14mph
Humidity: 93%   Direction: 310°NW
Pressure: 29.27"   Gusts: 24mph
Location:  43.9334°N, 92.0195°W
Report Text: KONA 241354Z AUTO 31012G21KT 1 1/2SM -SN BKN005 OVC013 00/M01 A2927 RMK AO2 P0001
Loading
Personal Weather Stations






























Interactive Weather Map New forecast layout! Learn more

10-Day Weather Forecast

Advertisements
Track Severe Weather on mobile